Time;durP1;ratioP1;P1;durP2;ratioP2;P2;SDS_P1;SDS_P2;PMS_P1;PMS_P2;Temp;Humidity;BMP_temperature;BMP_pressure;BME280_temperature;BME280_humidity;BME280_pressure;Samples;Min_cycle;Max_cycle;Signal;HPM_P1;HPM_P2
2023/09/14 00:01:23;;;;;;;34.27;2.50;;;;;;;24.01;60.87;99728.72;7306536;19;129114;-39
2023/09/14 00:03:48;;;;;;;73.17;3.87;;;;;;;24.13;59.82;99748.47;7311373;19;129005;-43
2023/09/14 00:06:13;;;;;;;58.63;3.30;;;;;;;24.13;61.28;99747.69;7309259;19;129107;-38
2023/09/14 00:08:39;;;;;;;55.30;3.30;;;;;;;24.14;60.15;99742.28;7307669;19;129748;-38
2023/09/14 00:11:05;;;;;;;51.77;3.00;;;;;;;24.00;59.85;99732.28;7306474;19;129013;-40
2023/09/14 00:13:30;;;;;;;82.77;4.57;;;;;;;24.11;59.53;99758.31;7309552;19;129103;-42
2023/09/14 00:15:56;;;;;;;46.57;2.90;;;;;;;24.10;60.53;99755.84;7308484;19;129609;-42
2023/09/14 00:18:21;;;;;;;34.40;2.23;;;;;;;24.08;60.44;99763.88;7307379;19;129212;-41
2023/09/14 00:20:46;;;;;;;43.63;2.60;;;;;;;24.07;60.80;99759.59;7306714;19;129429;-43
2023/09/14 00:23:12;;;;;;;64.27;3.83;;;;;;;24.06;60.33;99762.38;7308016;19;128687;-40
2023/09/14 00:25:37;;;;;;;62.87;3.63;;;;;;;24.08;59.89;99768.31;7309226;19;128993;-38
2023/09/14 00:28:03;;;;;;;73.37;4.30;;;;;;;24.08;60.79;99769.13;7308248;19;129623;-40
2023/09/14 00:30:28;;;;;;;62.03;3.37;;;;;;;24.09;60.16;99765.53;7306459;19;130601;-38
2023/09/14 00:32:54;;;;;;;40.53;2.37;;;;;;;24.09;60.12;99770.78;7309228;19;129090;-38
2023/09/14 00:35:20;;;;;;;53.63;3.60;;;;;;;24.07;60.07;99769.28;7308329;19;129131;-43
2023/09/14 00:37:46;;;;;;;40.42;2.85;;;;;;;24.05;60.21;99769.44;7307054;19;129313;-42
2023/09/14 00:40:13;;;;;;;97.67;5.47;;;;;;;24.07;60.97;99770.13;7305499;19;128979;-37
2023/09/14 00:42:46;;;;;;;51.50;3.42;;;;;;;24.07;61.61;99770.13;7309138;19;130239;-37
2023/09/14 00:45:14;;;;;;;38.13;2.97;;;;;;;24.06;60.09;99771.09;7310379;19;131493;-40
2023/09/14 00:47:42;;;;;;;46.30;3.30;;;;;;;24.05;60.50;99774.69;7307470;19;130545;-42
2023/09/14 00:50:08;;;;;;;81.15;4.55;;;;;;;24.04;59.94;99774.84;7306915;19;129142;-38
2023/09/14 00:52:36;;;;;;;75.87;4.60;;;;;;;24.03;60.01;99781.09;7305708;19;129573;-36
2023/09/14 00:55:04;;;;;;;22.65;2.08;;;;;;;23.90;61.20;99763.03;7308713;19;129117;-37
2023/09/14 00:57:30;;;;;;;37.33;2.60;;;;;;;24.03;60.20;99775.81;7308424;19;131421;-43
2023/09/14 00:59:56;;;;;;;32.35;2.38;;;;;;;24.03;59.81;99787.13;7308664;19;129001;-41
2023/09/14 01:02:21;;;;;;;82.50;4.77;;;;;;;24.02;59.44;99790.75;7314241;19;129563;-38
2023/09/14 01:04:48;;;;;;;58.63;4.17;;;;;;;24.00;59.50;99783.97;7309424;19;130225;-40
2023/09/14 01:07:15;;;;;;;52.13;3.78;;;;;;;24.00;60.47;99784.81;7313109;19;129358;-40
2023/09/14 01:09:40;;;;;;;;;;;;;;;24.05;61.82;99787.81;7314309;19;129273;-39
2023/09/14 01:12:08;;;;;;;49.55;3.30;;;;;;;24.02;59.66;99796.00;7315283;19;129183;-41
2023/09/14 01:14:55;;;;;;;35.15;2.92;;;;;;;24.00;61.92;99784.81;7313258;19;129364;-40
2023/09/14 01:17:32;;;;;;;52.63;3.90;;;;;;;24.01;61.19;99788.28;7312305;19;129492;-42
2023/09/14 01:20:04;;;;;;;;;;;;;;;23.92;61.06;99776.84;7314247;19;129252;-44
2023/09/14 01:22:53;;;;;;;37.50;2.83;;;;;;;24.02;60.75;99790.75;7314104;19;129521;-41
2023/09/14 01:25:41;;;;;;;71.82;4.68;;;;;;;24.01;61.43;99791.75;7311655;19;131174;-41
2023/09/14 01:28:11;;;;;;;44.17;3.13;;;;;;;24.00;58.67;99797.94;7313531;19;130327;-41
2023/09/14 01:30:38;;;;;;;60.55;3.78;;;;;;;23.99;59.52;99804.19;7312385;19;129188;-39
2023/09/14 01:33:11;;;;;;;53.95;3.47;;;;;;;23.99;60.75;99805.97;7314704;19;128872;-42
2023/09/14 01:36:03;;;;;;;46.03;3.17;;;;;;;23.99;61.28;99804.19;7312606;19;129387;-39
2023/09/14 01:38:30;;;;;;;78.47;5.22;;;;;;;23.99;59.84;99806.81;7312714;19;130277;-40
2023/09/14 01:40:56;;;;;;;50.15;3.63;;;;;;;23.98;58.96;99813.03;7310720;19;131089;-42
2023/09/14 01:43:21;;;;;;;55.27;3.93;;;;;;;23.95;59.50;99807.22;7312891;19;128886;-41
2023/09/14 01:45:47;;;;;;;102.47;6.27;;;;;;;23.97;59.28;99808.72;7311335;19;130444;-42
2023/09/14 01:48:18;;;;;;;33.07;2.87;;;;;;;23.85;60.65;99788.09;7313034;19;129365;-36
2023/09/14 01:50:43;;;;;;;35.63;2.97;;;;;;;23.94;59.48;99803.78;7312338;19;129790;-40
2023/09/14 01:53:10;;;;;;;31.03;2.67;;;;;;;23.94;60.18;99809.03;7313306;19;129838;-41
2023/09/14 01:55:35;;;;;;;;;;;;;;;24.01;61.52;99814.53;7313536;19;129292;-43
2023/09/14 01:58:01;;;;;;;44.23;3.27;;;;;;;23.96;59.52;99808.88;7315041;19;129511;-41
2023/09/14 02:00:26;;;;;;;60.27;4.13;;;;;;;23.94;58.75;99819.53;7310475;19;130504;-41
2023/09/14 02:02:52;;;;;;;35.50;2.90;;;;;;;23.94;59.09;99809.03;7313286;19;129180;-43
2023/09/14 02:05:18;;;;;;;61.72;4.25;;;;;;;23.96;58.80;99807.09;7312965;19;130449;-41
2023/09/14 02:07:43;;;;;;;25.10;2.63;;;;;;;23.95;58.62;99810.66;7315802;19;130380;-38
2023/09/14 02:10:09;;;;;;;74.83;4.93;;;;;;;23.94;60.38;99814.28;7311180;19;129427;-40
2023/09/14 02:12:34;;;;;;;47.23;3.27;;;;;;;23.95;59.40;99810.66;7311758;19;129053;-40
2023/09/14 02:14:59;;;;;;;103.37;5.93;;;;;;;23.95;58.54;99810.66;7312507;19;129456;-40
2023/09/14 02:17:25;;;;;;;53.90;3.93;;;;;;;23.94;59.46;99816.91;7312455;19;130249;-42
2023/09/14 02:19:53;;;;;;;42.43;3.07;;;;;;;23.82;59.89;99799.72;7312890;19;129552;-37
2023/09/14 02:22:18;;;;;;;45.92;3.45;;;;;;;23.93;58.79;99817.88;7310823;19;129736;-40
2023/09/14 02:24:44;;;;;;;101.23;5.80;;;;;;;23.94;59.63;99822.16;7312440;19;130101;-37
2023/09/14 02:27:09;;;;;;;25.17;2.57;;;;;;;23.93;58.85;99817.88;7313655;19;129286;-41
2023/09/14 02:29:34;;;;;;;84.20;5.67;;;;;;;23.93;58.48;99823.13;7306996;19;129065;-42
2023/09/14 02:32:00;;;;;;;55.60;3.87;;;;;;;23.95;58.42;99821.19;7306806;19;130242;-42
2023/09/14 02:34:25;;;;;;;72.13;5.03;;;;;;;23.82;58.52;99812.84;7310941;19;129399;-40
2023/09/14 02:36:50;;;;;;;17.70;2.17;;;;;;;23.94;59.32;99827.41;7310626;19;130454;-41
2023/09/14 02:39:16;;;;;;;94.47;6.20;;;;;;;23.93;58.71;99825.75;7306027;19;130458;-44
2023/09/14 02:41:41;;;;;;;74.67;4.80;;;;;;;23.90;58.84;99828.69;7310935;19;129530;-40
2023/09/14 02:44:06;;;;;;;67.10;4.97;;;;;;;23.90;58.83;99828.69;7310273;19;130248;-39
2023/09/14 02:46:32;;;;;;;48.77;3.90;;;;;;;23.91;58.29;99827.72;7310476;19;129836;-41
2023/09/14 02:48:57;;;;;;;98.77;6.70;;;;;;;23.81;58.60;99819.06;7311199;19;129241;-39
2023/09/14 02:51:22;;;;;;;124.87;7.70;;;;;;;23.88;58.81;99835.88;7309257;19;130117;-39
2023/09/14 02:53:48;;;;;;;32.23;3.03;;;;;;;23.90;58.35;99839.19;7313578;19;129255;-38
2023/09/14 02:56:14;;;;;;;76.03;5.37;;;;;;;23.87;58.23;99842.09;7306592;19;130390;-40
2023/09/14 02:58:39;;;;;;;39.87;3.43;;;;;;;23.88;57.89;99846.38;7308297;19;129189;-43
2023/09/14 03:01:09;;;;;;;85.20;5.20;;;;;;;23.87;59.20;99846.53;7310854;19;129402;-40
2023/09/14 03:03:35;;;;;;;54.45;4.13;;;;;;;23.87;58.62;99842.09;7309781;19;130239;-41
2023/09/14 03:06:00;;;;;;;53.17;3.92;;;;;;;23.88;58.50;99851.63;7312688;19;130632;-40
2023/09/14 03:08:25;;;;;;;54.97;4.10;;;;;;;23.89;58.31;99849.84;7310294;19;128888;-41
2023/09/14 03:10:51;;;;;;;70.57;4.67;;;;;;;23.88;58.22;99851.63;7310198;19;129422;-36
2023/09/14 03:13:16;;;;;;;27.17;2.33;;;;;;;23.85;58.82;99849.31;7308080;19;130780;-38
2023/09/14 03:15:41;;;;;;;42.70;3.73;;;;;;;23.86;58.22;99856.22;7309831;19;129316;-39
2023/09/14 03:18:07;;;;;;;75.37;4.97;;;;;;;23.88;57.85;99859.50;7310973;19;129069;-39
2023/09/14 03:20:32;;;;;;;80.83;5.13;;;;;;;23.88;58.45;99862.13;7308912;19;129835;-40
2023/09/14 03:22:59;;;;;;;39.33;3.03;;;;;;;23.86;58.31;99858.00;7311299;19;129298;-40
2023/09/14 03:25:24;;;;;;;;;;;;;;;23.91;59.98;99863.66;7307769;19;130167;-40
2023/09/14 03:27:49;;;;;;;40.37;3.20;;;;;;;23.78;57.98;99850.88;7310748;19;128987;-44
2023/09/14 03:30:15;;;;;;;49.13;3.63;;;;;;;23.86;58.61;99864.09;7309337;19;129449;-42
2023/09/14 03:32:40;;;;;;;40.10;3.20;;;;;;;23.86;58.80;99863.25;7310917;19;129219;-39
2023/09/14 03:35:05;;;;;;;49.40;3.93;;;;;;;23.75;57.76;99848.53;7312131;19;129499;-39
2023/09/14 03:37:31;;;;;;;60.00;4.23;;;;;;;23.85;57.48;99867.69;7309266;19;128995;-42
2023/09/14 03:39:56;;;;;;;63.30;4.47;;;;;;;23.85;57.59;99862.44;7306650;19;129549;-40
2023/09/14 03:42:22;;;;;;;60.17;4.63;;;;;;;23.81;58.21;99866.34;7307514;19;131672;-41
2023/09/14 03:44:48;;;;;;;47.37;3.67;;;;;;;23.83;58.01;99872.25;7309540;19;130357;-40
2023/09/14 03:47:13;;;;;;;76.67;4.87;;;;;;;23.85;57.61;99878.19;7307703;19;130076;-41
2023/09/14 03:49:38;;;;;;;27.30;2.50;;;;;;;23.84;57.81;99871.28;7308399;19;129994;-41
2023/09/14 03:52:04;;;;;;;48.07;3.63;;;;;;;23.83;58.48;99864.38;7303031;19;129642;-40
2023/09/14 03:54:29;;;;;;;70.17;5.00;;;;;;;23.83;58.48;99869.63;7303898;19;130253;-41
2023/09/14 03:56:55;;;;;;;87.83;5.80;;;;;;;23.83;57.33;99880.13;7308141;19;128812;-42
2023/09/14 03:59:21;;;;;;;44.60;3.70;;;;;;;23.83;57.29;99877.50;7305025;19;129148;-41
2023/09/14 04:01:46;;;;;;;57.40;4.30;;;;;;;23.82;58.29;99891.63;7305195;19;130448;-39
2023/09/14 04:04:11;;;;;;;95.00;6.40;;;;;;;23.80;57.43;99890.94;7304000;19;131143;-38
2023/09/14 04:06:37;;;;;;;64.83;4.30;;;;;;;23.80;57.47;99888.31;7306996;19;129185;-43
2023/09/14 04:09:04;;;;;;;51.13;4.07;;;;;;;23.80;57.79;99885.69;7308003;19;129404;-41
2023/09/14 04:11:29;;;;;;;60.13;4.18;;;;;;;23.76;58.04;99889.59;7303218;19;131223;-39
2023/09/14 04:13:56;;;;;;;60.70;4.07;;;;;;;23.71;58.23;99885.72;7305811;19;129447;-40
2023/09/14 04:16:21;;;;;;;70.70;4.60;;;;;;;23.69;57.22;99885.03;7302574;19;129552;-40
2023/09/14 04:18:46;;;;;;;69.17;4.83;;;;;;;23.80;58.50;99904.06;7307201;19;129282;-38
2023/09/14 04:21:12;;;;;;;53.00;3.93;;;;;;;23.79;58.12;99905.03;7300607;19;130402;-40
2023/09/14 04:23:37;;;;;;;40.53;3.20;;;;;;;23.79;57.58;99912.91;7307292;19;129228;-43
2023/09/14 04:26:03;;;;;;;83.77;5.43;;;;;;;23.81;58.99;99913.59;7305423;19;129015;-42
2023/09/14 04:28:29;;;;;;;80.70;5.47;;;;;;;23.81;57.32;99912.78;7300394;19;129388;-42
2023/09/14 04:30:58;;;;;;;44.57;3.40;;;;;;;23.69;58.63;99888.50;7306120;19;129866;-39
2023/09/14 04:33:24;;;;;;;80.32;5.05;;;;;;;23.81;57.99;99918.03;7307905;19;130334;-38
2023/09/14 04:35:55;;;;;;;31.90;2.58;;;;;;;23.79;59.69;99915.53;7314081;19;130139;-40
2023/09/14 04:38:21;;;;;;;27.10;2.38;;;;;;;23.65;58.00;99902.88;7312292;19;128957;-38
2023/09/14 04:40:48;;;;;;;64.57;4.83;;;;;;;23.78;58.60;99921.78;7307359;19;130138;-39
2023/09/14 04:43:14;;;;;;;37.05;2.92;;;;;;;23.77;58.50;99927.16;7314338;19;129254;-38
2023/09/14 04:45:40;;;;;;;57.05;4.18;;;;;;;23.77;58.64;99930.59;7313727;19;128857;-44
2023/09/14 04:48:06;;;;;;;39.73;3.20;;;;;;;23.79;58.17;99930.47;7315194;19;129188;-41
2023/09/14 04:50:32;;;;;;;64.05;4.75;;;;;;;23.79;58.17;99933.09;7308654;19;129327;-37
2023/09/14 04:52:57;;;;;;;65.67;4.37;;;;;;;23.78;58.45;99929.66;7313095;19;131407;-42
2023/09/14 04:55:23;;;;;;;95.00;6.03;;;;;;;23.68;58.21;99909.66;7308407;19;129952;-38
2023/09/14 04:57:48;;;;;;;34.37;3.17;;;;;;;23.75;57.73;99927.28;7312659;19;129296;-41
2023/09/14 05:00:14;;;;;;;53.73;3.93;;;;;;;23.77;58.57;99933.22;7311814;19;129659;-43
2023/09/14 05:02:40;;;;;;;67.17;4.67;;;;;;;23.77;57.87;99938.47;7307495;19;131693;-37
2023/09/14 05:05:07;;;;;;;59.65;4.20;;;;;;;23.78;58.43;99940.16;7310084;19;131332;-37
2023/09/14 05:07:33;;;;;;;66.03;4.82;;;;;;;23.74;58.34;99938.78;7313192;19;129903;-40
2023/09/14 05:09:59;;;;;;;101.03;6.87;;;;;;;23.66;57.68;99930.81;7307288;19;130903;-41
2023/09/14 05:12:25;;;;;;;101.20;6.37;;;;;;;23.76;58.74;99949.13;7311886;19;129727;-43
2023/09/14 05:14:50;;;;;;;33.80;3.37;;;;;;;23.65;57.71;99925.72;7312427;19;130696;-42
2023/09/14 05:17:16;;;;;;;39.20;3.37;;;;;;;23.77;58.50;99954.25;7307787;19;129981;-44
2023/09/14 05:19:42;;;;;;;48.90;3.70;;;;;;;23.76;59.18;99951.75;7311534;19;131076;-37
2023/09/14 05:22:08;;;;;;;72.10;4.95;;;;;;;23.76;57.77;99949.13;7313752;19;130131;-38
2023/09/14 05:24:33;;;;;;;86.65;6.40;;;;;;;23.73;58.57;99947.63;7311492;19;130365;-41
2023/09/14 05:27:00;;;;;;;36.73;3.23;;;;;;;23.77;58.41;99954.25;7312301;19;130160;-43
2023/09/14 05:29:26;;;;;;;42.58;3.53;;;;;;;23.77;58.21;99954.25;7312243;19;129674;-41
2023/09/14 05:31:52;;;;;;;75.23;5.17;;;;;;;23.74;57.84;99949.28;7312192;19;130287;-42
2023/09/14 05:34:17;;;;;;;41.23;3.37;;;;;;;23.73;57.56;99947.63;7315310;19;130362;-41
2023/09/14 05:36:43;;;;;;;29.20;3.07;;;;;;;23.76;58.27;99957.00;7310909;19;129858;-41
2023/09/14 05:39:08;;;;;;;26.60;3.00;;;;;;;23.74;58.14;99954.53;7315020;19;129642;-41
2023/09/14 05:41:34;;;;;;;101.80;6.67;;;;;;;23.76;58.50;99960.47;7311750;19;129156;-39
2023/09/14 05:44:00;;;;;;;21.87;2.43;;;;;;;23.74;58.42;99965.03;7315178;19;129138;-41
2023/09/14 05:46:25;;;;;;;62.57;4.50;;;;;;;23.74;58.69;99965.03;7310382;19;129103;-43
2023/09/14 05:48:50;;;;;;;55.80;4.43;;;;;;;23.73;58.33;99971.28;7313814;19;129455;-41
2023/09/14 05:51:16;;;;;;;54.60;4.13;;;;;;;23.73;57.80;99971.28;7314127;19;129204;-42
2023/09/14 05:53:41;;;;;;;46.27;4.00;;;;;;;23.73;58.01;99968.66;7313925;19;130316;-40
2023/09/14 05:56:06;;;;;;;26.80;2.80;;;;;;;23.73;58.13;99970.44;7313275;19;129990;-41
2023/09/14 05:58:32;;;;;;;97.30;5.93;;;;;;;23.71;58.22;99960.06;7311035;19;129623;-42
2023/09/14 06:01:00;;;;;;;32.33;2.93;;;;;;;23.72;58.45;99974.00;7311261;19;129577;-43
2023/09/14 06:03:25;;;;;;;18.30;2.45;;;;;;;23.70;57.97;99975.97;7312945;19;130040;-40
2023/09/14 06:05:50;;;;;;;32.03;2.80;;;;;;;23.72;58.16;99977.47;7313230;19;129170;-41
2023/09/14 06:08:16;;;;;;;66.70;4.30;;;;;;;23.71;58.27;99983.72;7312102;19;129050;-38
2023/09/14 06:10:41;;;;;;;67.57;4.87;;;;;;;23.62;57.31;99962.75;7310118;19;129948;-45
2023/09/14 06:13:07;;;;;;;49.33;4.13;;;;;;;23.70;57.87;99989.91;7310424;19;128872;-39
2023/09/14 06:15:32;;;;;;;57.57;4.10;;;;;;;23.71;58.28;99986.34;7311092;19;128878;-42
2023/09/14 06:17:58;;;;;;;81.03;5.23;;;;;;;23.68;58.74;99986.63;7309805;19;129465;-36
2023/09/14 06:20:23;;;;;;;31.80;2.93;;;;;;;23.68;57.98;99991.88;7310211;19;129498;-42
2023/09/14 06:22:49;;;;;;;45.73;3.47;;;;;;;23.66;57.88;99988.56;7310757;19;129872;-38
2023/09/14 06:25:14;;;;;;;67.13;4.33;;;;;;;23.55;57.93;99974.78;7307559;19;129163;-44
2023/09/14 06:27:39;;;;;;;108.07;6.73;;;;;;;23.65;58.57;99997.38;7308798;19;129563;-38
2023/09/14 06:30:06;;;;;;;54.17;4.27;;;;;;;23.64;58.24;100001.00;7310315;19;130526;-40
2023/09/14 06:32:31;;;;;;;46.55;3.72;;;;;;;23.65;57.95;99999.22;7310925;19;128880;-41
2023/09/14 06:34:57;;;;;;;60.10;4.13;;;;;;;23.64;58.41;100011.50;7311606;19;129150;-40
2023/09/14 06:37:22;;;;;;;51.70;3.57;;;;;;;23.64;58.41;100011.50;7311233;19;129126;-44
2023/09/14 06:39:48;;;;;;;28.73;2.90;;;;;;;23.65;58.65;100007.09;7312481;19;130194;-39
2023/09/14 06:42:13;;;;;;;70.47;4.90;;;;;;;23.64;57.88;100010.66;7309927;19;130836;-41
2023/09/14 06:44:38;;;;;;;82.13;5.13;;;;;;;23.52;58.63;99996.88;7311691;19;129324;-40
2023/09/14 06:47:04;;;;;;;61.87;4.63;;;;;;;23.64;58.23;100011.50;7312531;19;131210;-41
2023/09/14 06:49:29;;;;;;;54.63;3.97;;;;;;;23.51;57.58;99995.22;7310841;19;130541;-40
2023/09/14 06:51:54;;;;;;;36.20;3.60;;;;;;;23.64;57.90;100019.38;7311044;19;129573;-40
2023/09/14 06:54:20;;;;;;;83.87;5.33;;;;;;;23.64;58.67;100027.25;7310052;19;130915;-41
2023/09/14 06:56:45;;;;;;;39.80;3.63;;;;;;;23.61;58.02;100022.28;7311944;19;129270;-41
2023/09/14 06:59:10;;;;;;;46.97;4.20;;;;;;;23.64;58.86;100036.91;7310571;19;129249;-39
2023/09/14 07:01:36;;;;;;;51.27;4.33;;;;;;;23.61;58.11;100030.16;7309052;19;129201;-40
2023/09/14 07:04:01;;;;;;;56.07;4.17;;;;;;;23.62;57.53;100039.69;7311543;19;129260;-41
2023/09/14 07:06:27;;;;;;;39.17;3.60;;;;;;;23.63;58.08;100027.38;7310946;19;130375;-39
2023/09/14 07:08:52;;;;;;;61.87;4.97;;;;;;;23.63;59.05;100037.88;7310119;19;129561;-40
2023/09/14 07:11:18;;;;;;;41.00;3.60;;;;;;;23.63;58.44;100037.88;7309482;19;129461;-37
2023/09/14 07:13:43;;;;;;;88.37;6.17;;;;;;;23.63;59.03;100041.34;7312011;19;129302;-44
2023/09/14 07:16:08;;;;;;;38.77;3.47;;;;;;;23.62;58.28;100034.44;7310652;19;129610;-41
2023/09/14 07:18:34;;;;;;;47.30;4.07;;;;;;;23.62;58.17;100044.94;7310574;19;130454;-41
2023/09/14 07:21:02;;;;;;;45.37;3.73;;;;;;;23.61;57.98;100038.03;7309916;19;129030;-41
2023/09/14 07:23:28;;;;;;;55.60;4.25;;;;;;;23.59;58.15;100033.88;7309272;19;130685;-40
2023/09/14 07:25:53;;;;;;;36.47;3.10;;;;;;;23.61;58.05;100038.03;7311394;19;129930;-36
2023/09/14 07:28:19;;;;;;;37.73;3.47;;;;;;;23.61;58.05;100045.91;7309232;19;129253;-43
2023/09/14 07:30:47;;;;;;;71.78;5.20;;;;;;;23.52;58.59;100033.63;7308454;19;129549;-41
2023/09/14 07:33:13;;;;;;;62.92;4.30;;;;;;;23.59;58.57;100044.38;7310635;19;129004;-40
2023/09/14 07:35:39;;;;;;;65.85;5.03;;;;;;;23.59;58.71;100053.09;7309676;19;130163;-40
2023/09/14 07:38:07;;;;;;;48.50;4.03;;;;;;;23.59;58.28;100055.72;7309258;19;130500;-35
2023/09/14 07:40:32;;;;;;;65.70;5.13;;;;;;;23.60;57.49;100064.44;7306129;19;129166;-40
2023/09/14 07:42:58;;;;;;;77.47;5.27;;;;;;;23.60;57.62;100065.22;7311453;19;129990;-43
2023/09/14 07:45:23;;;;;;;30.47;3.37;;;;;;;23.59;57.50;100071.47;7311192;19;129694;-36
2023/09/14 07:47:48;;;;;;;36.00;3.73;;;;;;;23.61;58.01;100068.69;7309615;19;130271;-40
2023/09/14 07:50:14;;;;;;;57.00;4.43;;;;;;;23.61;58.96;100068.69;7307898;19;130435;-40
2023/09/14 07:52:41;;;;;;;67.80;5.13;;;;;;;23.59;58.16;100066.22;7309662;19;130071;-39
2023/09/14 07:55:07;;;;;;;37.20;3.70;;;;;;;23.59;58.39;100071.47;7308669;19;130172;-40
2023/09/14 07:57:32;;;;;;;22.07;2.80;;;;;;;23.61;58.33;100074.78;7309046;19;129170;-43
2023/09/14 07:59:57;;;;;;;65.37;4.77;;;;;;;23.61;57.94;100074.78;7309512;19;129604;-40
2023/09/14 08:02:24;;;;;;;38.20;3.17;;;;;;;23.61;58.19;100076.56;7308164;19;129044;-43
2023/09/14 08:04:49;;;;;;;52.63;4.53;;;;;;;23.58;57.60;100075.06;7308421;19;129353;-40
2023/09/14 08:07:15;;;;;;;54.13;4.07;;;;;;;23.48;58.24;100058.50;7306790;19;129201;-39
2023/09/14 08:09:40;;;;;;;110.83;6.93;;;;;;;23.57;57.84;100073.41;7306340;19;129277;-38
2023/09/14 08:12:06;;;;;;;31.07;3.00;;;;;;;23.59;57.74;100075.88;7307920;19;128913;-41
2023/09/14 08:14:31;;;;;;;36.43;3.27;;;;;;;23.56;58.15;100076.16;7309723;19;129493;-40
2023/09/14 08:16:57;;;;;;;52.33;4.33;;;;;;;23.58;57.81;100080.31;7306261;19;129430;-41
2023/09/14 08:19:22;;;;;;;64.87;4.40;;;;;;;23.58;57.74;100088.19;7310203;19;129287;-40
2023/09/14 08:21:47;;;;;;;74.27;5.67;;;;;;;23.57;58.18;100089.16;7307126;19;130442;-40
2023/09/14 08:24:13;;;;;;;60.33;4.63;;;;;;;23.57;58.19;100089.16;7309546;19;130099;-37
2023/09/14 08:26:39;;;;;;;32.17;3.63;;;;;;;23.57;57.91;100094.41;7308649;19;129180;-40
2023/09/14 08:29:04;;;;;;;69.90;4.63;;;;;;;23.56;57.63;100098.00;7309485;19;129011;-41
2023/09/14 08:31:29;;;;;;;11.93;2.57;;;;;;;23.57;57.78;100104.09;7308269;19;129158;-40
2023/09/14 08:33:55;;;;;;;47.77;4.10;;;;;;;23.58;57.75;100106.56;7309122;19;129496;-41
2023/09/14 08:36:20;;;;;;;64.00;5.07;;;;;;;23.56;58.48;100098.00;7308161;19;129769;-38
2023/09/14 08:38:45;;;;;;;102.60;7.67;;;;;;;23.56;58.21;100098.00;7309365;19;130132;-40
2023/09/14 08:41:25;;;;;;;28.10;2.83;;;;;;;23.57;59.25;100104.88;7308712;19;129051;-39
2023/09/14 08:43:51;;;;;;;60.60;4.82;;;;;;;23.56;57.91;100110.28;7308900;19;129460;-40
2023/09/14 08:46:18;;;;;;;40.07;3.67;;;;;;;23.56;58.33;100105.88;7307109;19;129157;-39
2023/09/14 08:48:45;;;;;;;132.60;8.57;;;;;;;23.55;57.88;100108.63;7306044;19;129339;-37
2023/09/14 08:51:11;;;;;;;32.95;3.33;;;;;;;23.55;57.86;100104.19;7307566;19;129160;-39
2023/09/14 08:53:39;;;;;;;44.93;4.00;;;;;;;23.56;57.33;100118.16;7309464;19;129200;-39
2023/09/14 08:56:06;;;;;;;36.95;3.33;;;;;;;23.56;57.70;100112.91;7309084;19;130039;-40
2023/09/14 08:58:33;;;;;;;90.63;5.85;;;;;;;23.55;57.81;100113.88;7305424;19;129030;-42
2023/09/14 09:01:00;;;;;;;40.22;3.72;;;;;;;23.55;57.87;100117.31;7307016;19;128908;-42
2023/09/14 09:03:26;;;;;;;;;;;;;;;23.58;59.36;100119.69;7308562;19;129885;-39
2023/09/14 09:05:51;;;;;;;60.97;4.68;;;;;;;23.56;58.10;100112.91;7306427;19;129333;-39
2023/09/14 09:08:17;;;;;;;63.10;4.60;;;;;;;23.55;57.30;100119.13;7308237;19;129597;-41
2023/09/14 09:10:43;;;;;;;57.87;4.43;;;;;;;23.54;58.30;100114.84;7305594;19;128857;-44
2023/09/14 09:13:08;;;;;;;21.75;2.30;;;;;;;23.54;57.78;100107.81;7307189;19;129560;-42
2023/09/14 09:15:36;;;;;;;34.88;3.15;;;;;;;23.54;57.72;100118.31;7307884;19;129975;-40
2023/09/14 09:18:07;;;;;;;86.60;6.00;;;;;;;23.54;58.80;100110.44;7306289;19;129622;-42
2023/09/14 09:20:33;;;;;;;57.50;4.43;;;;;;;23.52;57.84;100106.31;7308488;19;129921;-42
2023/09/14 09:23:00;;;;;;;36.28;3.42;;;;;;;23.52;58.23;100096.59;7315240;19;129135;-41
2023/09/14 09:25:25;;;;;;;;;;;;;;;23.56;59.32;100103.25;7316094;19;130043;-40
2023/09/14 09:27:58;;;;;;;66.00;4.85;;;;;;;23.53;59.14;100098.28;7316507;19;131403;-39
2023/09/14 09:30:29;;;;;;;37.22;3.13;;;;;;;23.41;59.24;100081.03;7313770;19;128870;-40
2023/09/14 09:32:58;;;;;;;62.67;4.57;;;;;;;23.52;58.46;100112.34;7313584;19;129679;-39
2023/09/14 09:35:28;;;;;;;38.97;3.40;;;;;;;23.51;58.32;100110.72;7311455;19;129365;-41
2023/09/14 09:37:57;;;;;;;53.65;4.32;;;;;;;23.41;58.34;100093.31;7312644;19;130083;-41
2023/09/14 09:40:27;;;;;;;55.35;4.15;;;;;;;23.52;57.85;100112.34;7312345;19;129186;-44
2023/09/14 09:42:54;;;;;;;48.25;3.75;;;;;;;23.52;57.38;100112.34;7315174;19;130173;-38
2023/09/14 09:45:20;;;;;;;;;;;;;;;23.56;59.21;100113.75;7313407;19;129846;-42
2023/09/14 09:47:46;;;;;;;57.53;4.50;;;;;;;23.41;57.91;100094.13;7314182;19;128921;-40
2023/09/14 09:50:13;;;;;;;72.70;5.22;;;;;;;23.53;58.04;100111.41;7310841;19;129573;-41
2023/09/14 09:52:41;;;;;;;31.08;3.55;;;;;;;23.51;57.49;100110.72;7314815;19;132052;-42
2023/09/14 09:55:14;;;;;;;56.78;4.38;;;;;;;23.52;58.05;100112.34;7313839;19;129314;-40
2023/09/14 09:57:49;;;;;;;36.28;3.50;;;;;;;23.52;58.70;100122.03;7311057;19;129862;-40
2023/09/14 10:00:15;;;;;;;48.08;4.13;;;;;;;23.50;57.65;100116.94;7312858;19;129407;-37
2023/09/14 10:02:41;;;;;;;70.07;4.78;;;;;;;23.52;57.80;100124.66;7312559;19;129400;-39
2023/09/14 10:05:08;;;;;;;47.17;4.67;;;;;;;23.50;57.24;100121.34;7313836;19;129916;-41
2023/09/14 10:07:43;;;;;;;32.83;3.40;;;;;;;23.50;58.70;100113.47;7312329;19;129359;-40
2023/09/14 10:10:09;;;;;;;37.88;3.55;;;;;;;23.50;57.72;100116.09;7312135;19;129314;-38
2023/09/14 10:12:39;;;;;;;111.35;7.05;;;;;;;23.50;58.66;100113.47;7312649;19;129752;-43
2023/09/14 10:15:08;;;;;;;55.17;4.20;;;;;;;23.51;57.70;100110.72;7313696;19;129545;-44
2023/09/14 10:17:35;;;;;;;48.00;3.78;;;;;;;23.49;57.32;100110.00;7313824;19;132405;-44
2023/09/14 10:20:05;;;;;;;29.23;2.95;;;;;;;23.50;56.54;100103.81;7310702;19;129392;-40
2023/09/14 10:22:31;;;;;;;38.15;2.92;;;;;;;23.50;56.58;100106.44;7314487;19;131664;-41
2023/09/14 10:24:58;;;;;;;87.37;5.93;;;;;;;23.50;56.11;100101.19;7313569;19;131289;-46
2023/09/14 10:27:27;;;;;;;43.10;3.50;;;;;;;23.49;56.54;100102.16;7314011;19;129121;-38
2023/09/14 10:29:56;;;;;;;61.35;4.30;;;;;;;23.45;57.85;100097.31;7311055;19;129205;-43
2023/09/14 10:32:22;;;;;;;35.90;2.92;;;;;;;23.50;56.66;100103.81;7310973;19;130861;-42
2023/09/14 10:34:49;;;;;;;93.65;5.95;;;;;;;23.50;57.21;100098.56;7312150;19;129478;-38
2023/09/14 10:37:18;;;;;;;17.90;2.08;;;;;;;23.49;57.52;100101.31;7313271;19;130146;-38
2023/09/14 10:39:45;;;;;;;53.20;4.22;;;;;;;23.37;56.85;100082.25;7311525;19;129303;-39
2023/09/14 10:42:10;;;;;;;33.53;2.92;;;;;;;23.49;57.19;100088.19;7311700;19;129878;-37
2023/09/14 10:44:36;;;;;;;70.57;4.53;;;;;;;23.48;57.20;100084.75;7312393;19;129600;-43
2023/09/14 10:47:03;;;;;;;21.70;2.27;;;;;;;23.48;57.60;100090.00;7312942;19;128983;-38
2023/09/14 10:49:31;;;;;;;40.65;3.85;;;;;;;23.47;57.53;100090.94;7310916;19;129551;-37
2023/09/14 10:51:57;;;;;;;61.22;4.22;;;;;;;23.48;56.66;100089.16;7308206;19;129641;-42
2023/09/14 10:54:26;;;;;;;82.23;5.23;;;;;;;23.47;57.70;100088.31;7311864;19;129295;-39
2023/09/14 10:56:56;;;;;;;50.20;3.85;;;;;;;23.48;57.93;100084.75;7314059;19;131001;-40
2023/09/14 10:59:42;;;;;;;39.35;3.42;;;;;;;23.48;57.74;100083.91;7312333;19;130582;-40
2023/09/14 11:02:07;;;;;;;31.08;3.10;;;;;;;23.35;56.26;100054.50;7308998;19;130359;-39
2023/09/14 11:04:32;;;;;;;43.40;3.73;;;;;;;23.48;56.78;100074.25;7309148;19;130405;-41
2023/09/14 11:06:59;;;;;;;79.37;5.27;;;;;;;23.48;56.51;100083.91;7312039;19;129561;-40
2023/09/14 11:09:24;;;;;;;45.40;3.95;;;;;;;23.48;57.63;100081.28;7312071;19;129438;-40
2023/09/14 11:11:50;;;;;;;65.97;4.78;;;;;;;23.47;56.00;100082.28;7309363;19;130277;-40